sensor_id;sensor_type;location;lat;lon;timestamp;P1;durP1;ratioP1;P2;durP2;ratioP2
59054;SDS011;44845;51.444;7.460;2022-12-10T00:01:24;36.05;;;19.88;;
59054;SDS011;44845;51.444;7.460;2022-12-10T00:03:50;33.55;;;20.02;;
59054;SDS011;44845;51.444;7.460;2022-12-10T00:06:17;33.58;;;20.00;;
59054;SDS011;44845;51.444;7.460;2022-12-10T00:08:44;35.13;;;20.40;;
59054;SDS011;44845;51.444;7.460;2022-12-10T00:11:10;33.75;;;19.98;;
59054;SDS011;44845;51.444;7.460;2022-12-10T00:13:38;32.35;;;18.85;;
59054;SDS011;44845;51.444;7.460;2022-12-10T00:16:05;35.08;;;20.85;;
59054;SDS011;44845;51.444;7.460;2022-12-10T00:18:32;35.85;;;19.92;;
59054;SDS011;44845;51.444;7.460;2022-12-10T00:20:58;36.97;;;20.33;;
59054;SDS011;44845;51.444;7.460;2022-12-10T00:23:23;33.53;;;20.10;;
59054;SDS011;44845;51.444;7.460;2022-12-10T00:25:49;37.15;;;21.45;;
59054;SDS011;44845;51.444;7.460;2022-12-10T00:28:14;42.80;;;25.30;;
59054;SDS011;44845;51.444;7.460;2022-12-10T00:30:40;42.38;;;24.88;;
59054;SDS011;44845;51.444;7.460;2022-12-10T00:33:05;39.50;;;22.73;;
59054;SDS011;44845;51.444;7.460;2022-12-10T00:35:30;32.03;;;18.23;;
59054;SDS011;44845;51.444;7.460;2022-12-10T00:37:59;35.50;;;20.13;;
59054;SDS011;44845;51.444;7.460;2022-12-10T00:40:24;34.30;;;18.67;;
59054;SDS011;44845;51.444;7.460;2022-12-10T00:42:50;37.75;;;20.52;;
59054;SDS011;44845;51.444;7.460;2022-12-10T00:45:15;43.00;;;24.83;;
59054;SDS011;44845;51.444;7.460;2022-12-10T00:47:40;33.80;;;21.35;;
59054;SDS011;44845;51.444;7.460;2022-12-10T00:50:06;41.45;;;23.67;;
59054;SDS011;44845;51.444;7.460;2022-12-10T00:52:31;36.28;;;21.55;;
59054;SDS011;44845;51.444;7.460;2022-12-10T00:54:57;35.60;;;20.52;;
59054;SDS011;44845;51.444;7.460;2022-12-10T00:57:22;33.50;;;19.70;;
59054;SDS011;44845;51.444;7.460;2022-12-10T00:59:47;33.25;;;18.85;;
59054;SDS011;44845;51.444;7.460;2022-12-10T01:02:13;29.90;;;18.05;;
59054;SDS011;44845;51.444;7.460;2022-12-10T01:04:38;34.42;;;18.90;;
59054;SDS011;44845;51.444;7.460;2022-12-10T01:07:03;33.40;;;19.35;;
59054;SDS011;44845;51.444;7.460;2022-12-10T01:09:29;35.15;;;18.92;;
59054;SDS011;44845;51.444;7.460;2022-12-10T01:11:56;35.10;;;20.27;;
59054;SDS011;44845;51.444;7.460;2022-12-10T01:14:27;32.28;;;19.40;;
59054;SDS011;44845;51.444;7.460;2022-12-10T01:16:56;35.33;;;20.40;;
59054;SDS011;44845;51.444;7.460;2022-12-10T01:19:22;37.28;;;19.75;;
59054;SDS011;44845;51.444;7.460;2022-12-10T01:21:51;37.45;;;20.90;;
59054;SDS011;44845;51.444;7.460;2022-12-10T01:24:23;39.53;;;20.92;;
59054;SDS011;44845;51.444;7.460;2022-12-10T01:26:50;34.75;;;19.65;;
59054;SDS011;44845;51.444;7.460;2022-12-10T01:29:16;36.10;;;19.58;;
59054;SDS011;44845;51.444;7.460;2022-12-10T01:31:42;32.72;;;20.02;;
59054;SDS011;44845;51.444;7.460;2022-12-10T01:34:09;32.45;;;19.30;;
59054;SDS011;44845;51.444;7.460;2022-12-10T01:36:37;30.02;;;18.27;;
59054;SDS011;44845;51.444;7.460;2022-12-10T01:39:08;33.42;;;19.40;;
59054;SDS011;44845;51.444;7.460;2022-12-10T01:42:17;34.53;;;19.98;;
59054;SDS011;44845;51.444;7.460;2022-12-10T01:46:53;31.27;;;17.98;;
59054;SDS011;44845;51.444;7.460;2022-12-10T01:49:21;31.98;;;18.55;;
59054;SDS011;44845;51.444;7.460;2022-12-10T01:51:57;31.90;;;18.42;;
59054;SDS011;44845;51.444;7.460;2022-12-10T01:54:26;30.85;;;18.20;;
59054;SDS011;44845;51.444;7.460;2022-12-10T01:57:04;29.35;;;17.58;;
59054;SDS011;44845;51.444;7.460;2022-12-10T01:59:32;30.27;;;17.75;;
59054;SDS011;44845;51.444;7.460;2022-12-10T02:05:02;33.47;;;17.50;;
59054;SDS011;44845;51.444;7.460;2022-12-10T02:07:39;29.52;;;16.55;;
59054;SDS011;44845;51.444;7.460;2022-12-10T02:13:36;26.15;;;15.35;;
59054;SDS011;44845;51.444;7.460;2022-12-10T02:16:12;27.38;;;15.60;;
59054;SDS011;44845;51.444;7.460;2022-12-10T02:18:55;27.92;;;15.48;;
59054;SDS011;44845;51.444;7.460;2022-12-10T02:21:26;28.48;;;16.50;;
59054;SDS011;44845;51.444;7.460;2022-12-10T02:23:58;29.33;;;15.50;;
59054;SDS011;44845;51.444;7.460;2022-12-10T02:26:30;27.38;;;16.05;;
59054;SDS011;44845;51.444;7.460;2022-12-10T02:29:19;31.35;;;16.92;;
59054;SDS011;44845;51.444;7.460;2022-12-10T02:31:46;30.60;;;17.20;;
59054;SDS011;44845;51.444;7.460;2022-12-10T02:34:16;30.50;;;17.13;;
59054;SDS011;44845;51.444;7.460;2022-12-10T02:36:44;28.65;;;16.33;;
59054;SDS011;44845;51.444;7.460;2022-12-10T02:39:14;29.10;;;17.67;;
59054;SDS011;44845;51.444;7.460;2022-12-10T02:41:47;28.70;;;16.65;;
59054;SDS011;44845;51.444;7.460;2022-12-10T02:44:17;27.83;;;15.60;;
59054;SDS011;44845;51.444;7.460;2022-12-10T02:46:45;25.27;;;14.25;;
59054;SDS011;44845;51.444;7.460;2022-12-10T02:49:14;24.80;;;13.57;;
59054;SDS011;44845;51.444;7.460;2022-12-10T02:51:40;23.65;;;13.73;;
59054;SDS011;44845;51.444;7.460;2022-12-10T02:54:06;28.58;;;14.90;;
59054;SDS011;44845;51.444;7.460;2022-12-10T02:56:54;24.60;;;13.80;;
59054;SDS011;44845;51.444;7.460;2022-12-10T02:59:29;22.38;;;13.30;;
59054;SDS011;44845;51.444;7.460;2022-12-10T03:02:11;24.90;;;13.57;;
59054;SDS011;44845;51.444;7.460;2022-12-10T03:07:11;21.55;;;11.68;;
59054;SDS011;44845;51.444;7.460;2022-12-10T03:10:03;23.40;;;13.35;;
59054;SDS011;44845;51.444;7.460;2022-12-10T03:12:46;24.92;;;13.82;;
59054;SDS011;44845;51.444;7.460;2022-12-10T03:15:15;21.75;;;13.18;;
59054;SDS011;44845;51.444;7.460;2022-12-10T03:17:43;24.40;;;13.43;;
59054;SDS011;44845;51.444;7.460;2022-12-10T03:20:11;22.67;;;13.02;;
59054;SDS011;44845;51.444;7.460;2022-12-10T03:22:39;21.75;;;11.60;;
59054;SDS011;44845;51.444;7.460;2022-12-10T03:25:08;20.23;;;11.90;;
59054;SDS011;44845;51.444;7.460;2022-12-10T03:27:36;20.83;;;11.80;;
59054;SDS011;44845;51.444;7.460;2022-12-10T03:30:04;20.08;;;12.05;;
59054;SDS011;44845;51.444;7.460;2022-12-10T03:32:30;20.42;;;11.20;;
59054;SDS011;44845;51.444;7.460;2022-12-10T03:34:56;20.42;;;12.00;;
59054;SDS011;44845;51.444;7.460;2022-12-10T03:37:23;22.70;;;11.52;;
59054;SDS011;44845;51.444;7.460;2022-12-10T03:39:50;19.55;;;11.32;;
59054;SDS011;44845;51.444;7.460;2022-12-10T03:42:16;18.90;;;11.68;;
59054;SDS011;44845;51.444;7.460;2022-12-10T03:44:42;19.83;;;12.43;;
59054;SDS011;44845;51.444;7.460;2022-12-10T03:47:09;24.20;;;12.15;;
59054;SDS011;44845;51.444;7.460;2022-12-10T03:49:37;18.25;;;10.93;;
59054;SDS011;44845;51.444;7.460;2022-12-10T03:52:02;21.70;;;12.27;;
59054;SDS011;44845;51.444;7.460;2022-12-10T03:54:28;18.20;;;11.13;;
59054;SDS011;44845;51.444;7.460;2022-12-10T03:56:53;19.85;;;11.85;;
59054;SDS011;44845;51.444;7.460;2022-12-10T03:59:19;20.90;;;11.40;;
59054;SDS011;44845;51.444;7.460;2022-12-10T04:01:44;19.30;;;10.02;;
59054;SDS011;44845;51.444;7.460;2022-12-10T04:04:10;21.05;;;11.68;;
59054;SDS011;44845;51.444;7.460;2022-12-10T04:06:37;17.95;;;11.00;;
59054;SDS011;44845;51.444;7.460;2022-12-10T04:09:04;19.60;;;11.45;;
59054;SDS011;44845;51.444;7.460;2022-12-10T04:11:29;18.98;;;11.40;;
59054;SDS011;44845;51.444;7.460;2022-12-10T04:13:55;21.73;;;12.38;;
59054;SDS011;44845;51.444;7.460;2022-12-10T04:16:39;17.90;;;10.38;;
59054;SDS011;44845;51.444;7.460;2022-12-10T04:19:06;18.90;;;10.95;;
59054;SDS011;44845;51.444;7.460;2022-12-10T04:21:34;19.27;;;11.32;;
59054;SDS011;44845;51.444;7.460;2022-12-10T04:24:21;22.25;;;11.57;;
59054;SDS011;44845;51.444;7.460;2022-12-10T04:27:14;22.20;;;11.40;;
59054;SDS011;44845;51.444;7.460;2022-12-10T04:29:43;18.33;;;10.93;;
59054;SDS011;44845;51.444;7.460;2022-12-10T04:32:08;18.17;;;10.85;;
59054;SDS011;44845;51.444;7.460;2022-12-10T04:34:34;21.50;;;11.80;;
59054;SDS011;44845;51.444;7.460;2022-12-10T04:36:59;23.80;;;11.52;;
59054;SDS011;44845;51.444;7.460;2022-12-10T04:39:26;20.83;;;11.32;;
59054;SDS011;44845;51.444;7.460;2022-12-10T04:41:51;19.30;;;11.20;;
59054;SDS011;44845;51.444;7.460;2022-12-10T04:44:17;17.92;;;10.70;;
59054;SDS011;44845;51.444;7.460;2022-12-10T04:46:43;22.98;;;12.70;;
59054;SDS011;44845;51.444;7.460;2022-12-10T04:49:09;20.23;;;12.05;;
59054;SDS011;44845;51.444;7.460;2022-12-10T04:51:34;21.50;;;11.65;;
59054;SDS011;44845;51.444;7.460;2022-12-10T04:54:00;21.67;;;12.65;;
59054;SDS011;44845;51.444;7.460;2022-12-10T04:56:25;20.63;;;12.25;;
59054;SDS011;44845;51.444;7.460;2022-12-10T04:58:51;18.33;;;11.38;;
59054;SDS011;44845;51.444;7.460;2022-12-10T05:01:16;21.95;;;11.90;;
59054;SDS011;44845;51.444;7.460;2022-12-10T05:03:43;20.25;;;11.88;;
59054;SDS011;44845;51.444;7.460;2022-12-10T05:06:10;22.20;;;12.25;;
59054;SDS011;44845;51.444;7.460;2022-12-10T05:08:37;19.50;;;10.85;;
59054;SDS011;44845;51.444;7.460;2022-12-10T05:11:05;20.08;;;10.88;;
59054;SDS011;44845;51.444;7.460;2022-12-10T05:13:31;28.10;;;13.75;;
59054;SDS011;44845;51.444;7.460;2022-12-10T05:15:57;23.05;;;10.98;;
59054;SDS011;44845;51.444;7.460;2022-12-10T05:18:23;18.92;;;10.90;;
59054;SDS011;44845;51.444;7.460;2022-12-10T05:20:49;24.88;;;12.02;;
59054;SDS011;44845;51.444;7.460;2022-12-10T05:23:14;19.52;;;11.27;;
59054;SDS011;44845;51.444;7.460;2022-12-10T05:28:31;21.13;;;12.23;;
59054;SDS011;44845;51.444;7.460;2022-12-10T05:31:02;19.55;;;11.70;;
59054;SDS011;44845;51.444;7.460;2022-12-10T05:33:29;20.30;;;12.15;;
59054;SDS011;44845;51.444;7.460;2022-12-10T05:35:58;18.88;;;11.63;;
59054;SDS011;44845;51.444;7.460;2022-12-10T05:38:29;21.75;;;11.52;;
59054;SDS011;44845;51.444;7.460;2022-12-10T05:41:00;20.27;;;12.25;;
59054;SDS011;44845;51.444;7.460;2022-12-10T05:43:30;22.50;;;11.60;;
59054;SDS011;44845;51.444;7.460;2022-12-10T05:46:02;21.65;;;11.73;;
59054;SDS011;44845;51.444;7.460;2022-12-10T05:48:29;20.80;;;12.25;;
59054;SDS011;44845;51.444;7.460;2022-12-10T05:50:55;20.45;;;12.23;;
59054;SDS011;44845;51.444;7.460;2022-12-10T05:53:21;22.05;;;12.52;;
59054;SDS011;44845;51.444;7.460;2022-12-10T05:55:46;18.80;;;11.75;;
59054;SDS011;44845;51.444;7.460;2022-12-10T05:58:11;24.33;;;12.77;;
59054;SDS011;44845;51.444;7.460;2022-12-10T06:00:38;21.65;;;12.35;;
59054;SDS011;44845;51.444;7.460;2022-12-10T06:03:04;19.35;;;11.07;;
59054;SDS011;44845;51.444;7.460;2022-12-10T06:05:35;20.73;;;12.60;;
59054;SDS011;44845;51.444;7.460;2022-12-10T06:08:01;23.73;;;11.80;;
59054;SDS011;44845;51.444;7.460;2022-12-10T06:10:26;21.00;;;12.32;;
59054;SDS011;44845;51.444;7.460;2022-12-10T06:12:52;23.52;;;12.23;;
59054;SDS011;44845;51.444;7.460;2022-12-10T06:15:17;22.00;;;12.32;;
59054;SDS011;44845;51.444;7.460;2022-12-10T06:17:42;22.02;;;12.48;;
59054;SDS011;44845;51.444;7.460;2022-12-10T06:20:08;21.40;;;12.00;;
59054;SDS011;44845;51.444;7.460;2022-12-10T06:22:34;20.58;;;11.65;;
59054;SDS011;44845;51.444;7.460;2022-12-10T06:24:59;22.48;;;12.85;;
59054;SDS011;44845;51.444;7.460;2022-12-10T06:27:24;19.35;;;12.07;;
59054;SDS011;44845;51.444;7.460;2022-12-10T06:29:50;22.35;;;12.48;;
59054;SDS011;44845;51.444;7.460;2022-12-10T06:32:15;22.42;;;12.20;;
59054;SDS011;44845;51.444;7.460;2022-12-10T06:34:40;22.83;;;11.73;;
59054;SDS011;44845;51.444;7.460;2022-12-10T06:37:06;22.30;;;11.93;;
59054;SDS011;44845;51.444;7.460;2022-12-10T06:39:31;21.45;;;12.27;;
59054;SDS011;44845;51.444;7.460;2022-12-10T06:41:56;21.67;;;11.90;;
59054;SDS011;44845;51.444;7.460;2022-12-10T06:44:22;20.88;;;12.85;;
59054;SDS011;44845;51.444;7.460;2022-12-10T06:46:47;19.65;;;10.88;;
59054;SDS011;44845;51.444;7.460;2022-12-10T06:49:12;18.42;;;10.98;;
59054;SDS011;44845;51.444;7.460;2022-12-10T06:51:38;19.58;;;11.48;;
59054;SDS011;44845;51.444;7.460;2022-12-10T06:54:04;20.67;;;10.90;;
59054;SDS011;44845;51.444;7.460;2022-12-10T06:56:29;19.35;;;11.55;;
59054;SDS011;44845;51.444;7.460;2022-12-10T06:58:55;20.33;;;10.82;;
59054;SDS011;44845;51.444;7.460;2022-12-10T07:01:21;21.30;;;10.40;;
59054;SDS011;44845;51.444;7.460;2022-12-10T07:03:52;21.25;;;12.27;;
59054;SDS011;44845;51.444;7.460;2022-12-10T07:06:19;16.55;;;10.23;;
59054;SDS011;44845;51.444;7.460;2022-12-10T07:08:44;21.95;;;12.18;;
59054;SDS011;44845;51.444;7.460;2022-12-10T07:11:12;18.10;;;11.40;;
59054;SDS011;44845;51.444;7.460;2022-12-10T07:13:38;21.02;;;11.90;;
59054;SDS011;44845;51.444;7.460;2022-12-10T07:16:15;19.10;;;11.90;;
59054;SDS011;44845;51.444;7.460;2022-12-10T07:18:42;20.05;;;11.63;;
59054;SDS011;44845;51.444;7.460;2022-12-10T07:21:15;21.88;;;11.95;;
59054;SDS011;44845;51.444;7.460;2022-12-10T07:23:41;19.00;;;11.63;;
59054;SDS011;44845;51.444;7.460;2022-12-10T07:26:07;20.75;;;12.18;;
59054;SDS011;44845;51.444;7.460;2022-12-10T07:28:33;24.30;;;12.00;;
59054;SDS011;44845;51.444;7.460;2022-12-10T07:31:05;21.52;;;12.02;;
59054;SDS011;44845;51.444;7.460;2022-12-10T07:33:32;20.65;;;12.30;;
59054;SDS011;44845;51.444;7.460;2022-12-10T07:35:58;20.10;;;11.68;;
59054;SDS011;44845;51.444;7.460;2022-12-10T07:38:23;19.77;;;11.60;;
59054;SDS011;44845;51.444;7.460;2022-12-10T07:40:50;20.27;;;11.85;;
59054;SDS011;44845;51.444;7.460;2022-12-10T07:43:16;20.52;;;11.85;;
59054;SDS011;44845;51.444;7.460;2022-12-10T07:45:41;19.80;;;11.38;;
59054;SDS011;44845;51.444;7.460;2022-12-10T07:48:06;21.02;;;11.70;;
59054;SDS011;44845;51.444;7.460;2022-12-10T07:50:32;21.85;;;12.00;;
59054;SDS011;44845;51.444;7.460;2022-12-10T07:52:58;19.85;;;11.85;;
59054;SDS011;44845;51.444;7.460;2022-12-10T07:55:23;21.25;;;12.30;;
59054;SDS011;44845;51.444;7.460;2022-12-10T07:57:48;19.48;;;11.65;;
59054;SDS011;44845;51.444;7.460;2022-12-10T08:00:14;20.92;;;12.55;;
59054;SDS011;44845;51.444;7.460;2022-12-10T08:02:39;20.73;;;12.30;;
59054;SDS011;44845;51.444;7.460;2022-12-10T08:05:05;21.08;;;12.60;;
59054;SDS011;44845;51.444;7.460;2022-12-10T08:07:30;22.52;;;12.80;;
59054;SDS011;44845;51.444;7.460;2022-12-10T08:09:55;21.75;;;12.48;;
59054;SDS011;44845;51.444;7.460;2022-12-10T08:12:21;21.67;;;11.98;;
59054;SDS011;44845;51.444;7.460;2022-12-10T08:14:46;22.75;;;12.00;;
59054;SDS011;44845;51.444;7.460;2022-12-10T08:17:11;21.23;;;12.40;;
59054;SDS011;44845;51.444;7.460;2022-12-10T08:19:37;22.60;;;13.32;;
59054;SDS011;44845;51.444;7.460;2022-12-10T08:22:02;22.02;;;12.65;;
59054;SDS011;44845;51.444;7.460;2022-12-10T08:24:27;24.80;;;13.40;;
59054;SDS011;44845;51.444;7.460;2022-12-10T08:26:53;24.70;;;12.60;;
59054;SDS011;44845;51.444;7.460;2022-12-10T08:29:18;23.15;;;12.45;;
59054;SDS011;44845;51.444;7.460;2022-12-10T08:31:43;21.25;;;12.63;;
59054;SDS011;44845;51.444;7.460;2022-12-10T08:34:15;22.50;;;13.00;;
59054;SDS011;44845;51.444;7.460;2022-12-10T08:36:42;20.77;;;12.40;;
59054;SDS011;44845;51.444;7.460;2022-12-10T08:39:08;21.05;;;11.32;;
59054;SDS011;44845;51.444;7.460;2022-12-10T08:41:35;22.05;;;12.80;;
59054;SDS011;44845;51.444;7.460;2022-12-10T08:44:01;21.05;;;12.38;;
59054;SDS011;44845;51.444;7.460;2022-12-10T08:46:27;22.63;;;12.48;;
59054;SDS011;44845;51.444;7.460;2022-12-10T08:48:53;20.75;;;12.43;;
59054;SDS011;44845;51.444;7.460;2022-12-10T08:51:19;19.75;;;11.45;;
59054;SDS011;44845;51.444;7.460;2022-12-10T08:53:45;19.13;;;11.88;;
59054;SDS011;44845;51.444;7.460;2022-12-10T08:56:11;21.35;;;12.50;;
59054;SDS011;44845;51.444;7.460;2022-12-10T08:58:37;21.75;;;11.77;;
59054;SDS011;44845;51.444;7.460;2022-12-10T09:01:06;20.27;;;12.25;;
59054;SDS011;44845;51.444;7.460;2022-12-10T09:03:36;22.50;;;11.73;;
59054;SDS011;44845;51.444;7.460;2022-12-10T09:06:06;17.55;;;10.68;;
59054;SDS011;44845;51.444;7.460;2022-12-10T09:08:34;17.60;;;11.32;;
59054;SDS011;44845;51.444;7.460;2022-12-10T09:11:09;19.77;;;11.73;;
59054;SDS011;44845;51.444;7.460;2022-12-10T09:13:37;20.33;;;10.95;;
59054;SDS011;44845;51.444;7.460;2022-12-10T09:16:03;17.98;;;11.30;;
59054;SDS011;44845;51.444;7.460;2022-12-10T09:18:29;18.40;;;10.93;;
59054;SDS011;44845;51.444;7.460;2022-12-10T09:20:54;17.30;;;10.45;;
59054;SDS011;44845;51.444;7.460;2022-12-10T09:23:19;19.17;;;10.50;;
59054;SDS011;44845;51.444;7.460;2022-12-10T09:25:45;16.30;;;10.25;;
59054;SDS011;44845;51.444;7.460;2022-12-10T09:28:10;17.55;;;10.52;;
59054;SDS011;44845;51.444;7.460;2022-12-10T09:30:36;22.35;;;11.05;;
59054;SDS011;44845;51.444;7.460;2022-12-10T09:33:01;16.10;;;9.68;;
59054;SDS011;44845;51.444;7.460;2022-12-10T09:35:26;16.50;;;9.70;;
59054;SDS011;44845;51.444;7.460;2022-12-10T09:37:52;16.23;;;9.73;;
59054;SDS011;44845;51.444;7.460;2022-12-10T09:40:18;18.63;;;11.05;;
59054;SDS011;44845;51.444;7.460;2022-12-10T09:43:00;17.23;;;10.55;;
59054;SDS011;44845;51.444;7.460;2022-12-10T09:45:34;17.63;;;10.27;;
59054;SDS011;44845;51.444;7.460;2022-12-10T09:51:21;17.98;;;10.05;;
59054;SDS011;44845;51.444;7.460;2022-12-10T09:53:49;19.90;;;10.27;;
59054;SDS011;44845;51.444;7.460;2022-12-10T09:56:23;17.88;;;10.75;;
59054;SDS011;44845;51.444;7.460;2022-12-10T09:58:55;17.20;;;9.20;;
59054;SDS011;44845;51.444;7.460;2022-12-10T10:01:22;17.35;;;10.07;;
59054;SDS011;44845;51.444;7.460;2022-12-10T10:03:52;18.52;;;11.48;;
59054;SDS011;44845;51.444;7.460;2022-12-10T10:06:18;20.77;;;11.25;;
59054;SDS011;44845;51.444;7.460;2022-12-10T10:08:47;17.98;;;10.57;;
59054;SDS011;44845;51.444;7.460;2022-12-10T10:11:20;16.92;;;10.75;;
59054;SDS011;44845;51.444;7.460;2022-12-10T10:16:32;18.73;;;10.85;;
59054;SDS011;44845;51.444;7.460;2022-12-10T10:19:31;17.27;;;10.80;;
59054;SDS011;44845;51.444;7.460;2022-12-10T10:21:59;18.00;;;10.70;;
59054;SDS011;44845;51.444;7.460;2022-12-10T10:24:26;17.88;;;11.35;;
59054;SDS011;44845;51.444;7.460;2022-12-10T10:27:01;19.88;;;11.05;;
59054;SDS011;44845;51.444;7.460;2022-12-10T10:29:47;19.95;;;11.80;;
59054;SDS011;44845;51.444;7.460;2022-12-10T10:34:52;21.52;;;12.30;;
59054;SDS011;44845;51.444;7.460;2022-12-10T10:37:26;18.27;;;11.05;;
59054;SDS011;44845;51.444;7.460;2022-12-10T10:39:56;19.65;;;11.32;;
59054;SDS011;44845;51.444;7.460;2022-12-10T10:45:01;32.20;;;17.45;;
59054;SDS011;44845;51.444;7.460;2022-12-10T10:47:29;35.80;;;19.33;;
59054;SDS011;44845;51.444;7.460;2022-12-10T10:49:56;39.20;;;20.98;;
59054;SDS011;44845;51.444;7.460;2022-12-10T10:52:23;40.42;;;21.27;;
59054;SDS011;44845;51.444;7.460;2022-12-10T10:54:54;48.42;;;23.02;;
59054;SDS011;44845;51.444;7.460;2022-12-10T10:57:24;43.17;;;23.17;;
59054;SDS011;44845;51.444;7.460;2022-12-10T11:00:03;47.30;;;22.33;;
59054;SDS011;44845;51.444;7.460;2022-12-10T11:02:43;41.55;;;21.77;;
59054;SDS011;44845;51.444;7.460;2022-12-10T11:05:15;48.33;;;23.63;;
59054;SDS011;44845;51.444;7.460;2022-12-10T11:07:42;47.70;;;24.53;;
59054;SDS011;44845;51.444;7.460;2022-12-10T11:10:18;49.35;;;23.42;;
59054;SDS011;44845;51.444;7.460;2022-12-10T11:12:56;46.08;;;23.60;;
59054;SDS011;44845;51.444;7.460;2022-12-10T11:21:00;48.45;;;22.65;;
59054;SDS011;44845;51.444;7.460;2022-12-10T11:23:29;44.80;;;21.55;;
59054;SDS011;44845;51.444;7.460;2022-12-10T11:28:55;41.70;;;21.60;;
59054;SDS011;44845;51.444;7.460;2022-12-10T11:31:29;43.17;;;21.90;;
59054;SDS011;44845;51.444;7.460;2022-12-10T11:41:53;39.08;;;21.25;;
59054;SDS011;44845;51.444;7.460;2022-12-10T11:44:40;39.85;;;21.80;;
59054;SDS011;44845;51.444;7.460;2022-12-10T11:52:56;38.85;;;20.15;;
59054;SDS011;44845;51.444;7.460;2022-12-10T11:58:39;40.70;;;19.58;;
59054;SDS011;44845;51.444;7.460;2022-12-10T12:09:38;40.63;;;19.73;;
59054;SDS011;44845;51.444;7.460;2022-12-10T12:15:19;39.40;;;19.55;;
59054;SDS011;44845;51.444;7.460;2022-12-10T12:17:52;42.08;;;20.55;;
59054;SDS011;44845;51.444;7.460;2022-12-10T12:23:24;44.92;;;20.30;;
59054;SDS011;44845;51.444;7.460;2022-12-10T12:26:02;44.10;;;20.50;;
59054;SDS011;44845;51.444;7.460;2022-12-10T12:31:00;40.00;;;20.10;;
59054;SDS011;44845;51.444;7.460;2022-12-10T12:33:41;46.92;;;21.90;;
59054;SDS011;44845;51.444;7.460;2022-12-10T12:36:12;42.65;;;20.80;;
59054;SDS011;44845;51.444;7.460;2022-12-10T12:38:53;41.70;;;20.45;;
59054;SDS011;44845;51.444;7.460;2022-12-10T12:41:34;42.70;;;20.67;;
59054;SDS011;44845;51.444;7.460;2022-12-10T12:46:40;43.42;;;20.85;;
59054;SDS011;44845;51.444;7.460;2022-12-10T12:49:28;43.28;;;21.23;;
59054;SDS011;44845;51.444;7.460;2022-12-10T12:55:02;41.53;;;21.13;;
59054;SDS011;44845;51.444;7.460;2022-12-10T12:57:39;40.22;;;20.90;;
59054;SDS011;44845;51.444;7.460;2022-12-10T13:00:12;44.63;;;21.60;;
59054;SDS011;44845;51.444;7.460;2022-12-10T13:05:46;41.67;;;20.27;;
59054;SDS011;44845;51.444;7.460;2022-12-10T13:24:20;45.97;;;20.83;;
59054;SDS011;44845;51.444;7.460;2022-12-10T13:32:18;43.75;;;21.95;;
59054;SDS011;44845;51.444;7.460;2022-12-10T13:35:15;46.72;;;21.73;;
59054;SDS011;44845;51.444;7.460;2022-12-10T13:37:34;47.40;;;21.50;;
59054;SDS011;44845;51.444;7.460;2022-12-10T13:42:39;42.67;;;20.85;;
59054;SDS011;44845;51.444;7.460;2022-12-10T13:45:28;41.00;;;20.15;;
59054;SDS011;44845;51.444;7.460;2022-12-10T13:50:48;43.33;;;20.52;;
59054;SDS011;44845;51.444;7.460;2022-12-10T13:53:48;42.53;;;21.92;;
59054;SDS011;44845;51.444;7.460;2022-12-10T13:56:29;45.67;;;21.85;;
59054;SDS011;44845;51.444;7.460;2022-12-10T14:07:03;41.85;;;19.92;;
59054;SDS011;44845;51.444;7.460;2022-12-10T14:09:34;40.50;;;19.58;;
59054;SDS011;44845;51.444;7.460;2022-12-10T14:12:14;47.65;;;20.92;;
59054;SDS011;44845;51.444;7.460;2022-12-10T14:14:43;44.63;;;20.60;;
59054;SDS011;44845;51.444;7.460;2022-12-10T14:17:19;44.95;;;21.35;;
59054;SDS011;44845;51.444;7.460;2022-12-10T14:19:49;45.30;;;21.05;;
59054;SDS011;44845;51.444;7.460;2022-12-10T14:22:19;37.58;;;20.23;;
59054;SDS011;44845;51.444;7.460;2022-12-10T14:24:53;43.80;;;21.08;;
59054;SDS011;44845;51.444;7.460;2022-12-10T14:27:25;38.45;;;18.90;;
59054;SDS011;44845;51.444;7.460;2022-12-10T14:29:58;42.97;;;21.08;;
59054;SDS011;44845;51.444;7.460;2022-12-10T14:32:31;38.83;;;19.58;;
59054;SDS011;44845;51.444;7.460;2022-12-10T14:34:59;40.90;;;20.65;;
59054;SDS011;44845;51.444;7.460;2022-12-10T14:37:33;40.42;;;20.90;;
59054;SDS011;44845;51.444;7.460;2022-12-10T14:40:01;41.65;;;20.02;;
59054;SDS011;44845;51.444;7.460;2022-12-10T14:42:30;39.55;;;20.27;;
59054;SDS011;44845;51.444;7.460;2022-12-10T14:44:59;42.65;;;21.55;;
59054;SDS011;44845;51.444;7.460;2022-12-10T14:47:32;41.33;;;20.35;;
59054;SDS011;44845;51.444;7.460;2022-12-10T14:50:01;44.20;;;21.00;;
59054;SDS011;44845;51.444;7.460;2022-12-10T14:52:32;42.70;;;21.10;;
59054;SDS011;44845;51.444;7.460;2022-12-10T14:55:00;42.90;;;21.55;;
59054;SDS011;44845;51.444;7.460;2022-12-10T14:57:30;42.88;;;21.25;;
59054;SDS011;44845;51.444;7.460;2022-12-10T15:02:42;46.63;;;22.77;;
59054;SDS011;44845;51.444;7.460;2022-12-10T15:07:56;45.97;;;22.77;;
59054;SDS011;44845;51.444;7.460;2022-12-10T15:10:26;52.72;;;24.02;;
59054;SDS011;44845;51.444;7.460;2022-12-10T15:13:00;45.05;;;22.42;;
59054;SDS011;44845;51.444;7.460;2022-12-10T15:15:30;58.45;;;26.25;;
59054;SDS011;44845;51.444;7.460;2022-12-10T15:20:37;51.90;;;25.27;;
59054;SDS011;44845;51.444;7.460;2022-12-10T15:23:07;50.88;;;24.17;;
59054;SDS011;44845;51.444;7.460;2022-12-10T15:25:45;48.33;;;24.20;;
59054;SDS011;44845;51.444;7.460;2022-12-10T15:33:21;47.75;;;22.33;;
59054;SDS011;44845;51.444;7.460;2022-12-10T15:35:54;44.70;;;22.40;;
59054;SDS011;44845;51.444;7.460;2022-12-10T15:38:23;44.53;;;22.88;;
59054;SDS011;44845;51.444;7.460;2022-12-10T15:40:49;48.63;;;22.98;;
59054;SDS011;44845;51.444;7.460;2022-12-10T15:43:27;43.88;;;22.27;;
59054;SDS011;44845;51.444;7.460;2022-12-10T15:45:54;46.80;;;22.05;;
59054;SDS011;44845;51.444;7.460;2022-12-10T15:48:20;47.30;;;21.67;;
59054;SDS011;44845;51.444;7.460;2022-12-10T15:50:46;45.75;;;21.55;;
59054;SDS011;44845;51.444;7.460;2022-12-10T15:53:14;44.17;;;22.08;;
59054;SDS011;44845;51.444;7.460;2022-12-10T15:55:46;46.05;;;23.00;;
59054;SDS011;44845;51.444;7.460;2022-12-10T15:58:12;41.83;;;22.27;;
59054;SDS011;44845;51.444;7.460;2022-12-10T16:00:38;40.03;;;20.75;;
59054;SDS011;44845;51.444;7.460;2022-12-10T16:03:08;43.95;;;21.63;;
59054;SDS011;44845;51.444;7.460;2022-12-10T16:05:36;43.30;;;21.20;;
59054;SDS011;44845;51.444;7.460;2022-12-10T16:08:12;39.55;;;20.48;;
59054;SDS011;44845;51.444;7.460;2022-12-10T16:10:43;43.65;;;22.75;;
59054;SDS011;44845;51.444;7.460;2022-12-10T16:13:20;43.78;;;22.52;;
59054;SDS011;44845;51.444;7.460;2022-12-10T16:15:58;40.97;;;20.38;;
59054;SDS011;44845;51.444;7.460;2022-12-10T16:18:25;41.50;;;21.08;;
59054;SDS011;44845;51.444;7.460;2022-12-10T16:20:51;40.08;;;21.15;;
59054;SDS011;44845;51.444;7.460;2022-12-10T16:23:16;42.15;;;21.35;;
59054;SDS011;44845;51.444;7.460;2022-12-10T16:25:42;42.92;;;20.88;;
59054;SDS011;44845;51.444;7.460;2022-12-10T16:28:10;43.30;;;21.13;;
59054;SDS011;44845;51.444;7.460;2022-12-10T16:30:42;43.88;;;21.35;;
59054;SDS011;44845;51.444;7.460;2022-12-10T16:33:09;38.75;;;19.77;;
59054;SDS011;44845;51.444;7.460;2022-12-10T16:35:36;44.63;;;21.60;;
59054;SDS011;44845;51.444;7.460;2022-12-10T16:38:02;41.33;;;19.45;;